sensor_id;sensor_type;location;lat;lon;timestamp;P1;durP1;ratioP1;P2;durP2;ratioP2
49340;SDS011;35209;51.050;13.678;2023-02-22T00:01:47;5.80;;;5.18;;
49340;SDS011;35209;51.050;13.678;2023-02-22T00:07:10;5.43;;;4.97;;
49340;SDS011;35209;51.050;13.678;2023-02-22T00:12:12;7.38;;;5.60;;
49340;SDS011;35209;51.050;13.678;2023-02-22T00:17:14;5.13;;;4.63;;
49340;SDS011;35209;51.050;13.678;2023-02-22T00:22:16;6.10;;;5.60;;
49340;SDS011;35209;51.050;13.678;2023-02-22T00:27:19;7.18;;;5.20;;
49340;SDS011;35209;51.050;13.678;2023-02-22T00:32:23;4.82;;;4.40;;
49340;SDS011;35209;51.050;13.678;2023-02-22T00:37:26;5.97;;;5.47;;
49340;SDS011;35209;51.050;13.678;2023-02-22T00:42:32;5.82;;;5.25;;
49340;SDS011;35209;51.050;13.678;2023-02-22T00:47:33;5.70;;;5.15;;
49340;SDS011;35209;51.050;13.678;2023-02-22T00:52:36;4.97;;;4.57;;
49340;SDS011;35209;51.050;13.678;2023-02-22T00:57:38;4.95;;;4.55;;
49340;SDS011;35209;51.050;13.678;2023-02-22T01:02:41;5.50;;;5.00;;
49340;SDS011;35209;51.050;13.678;2023-02-22T01:07:47;6.50;;;5.15;;
49340;SDS011;35209;51.050;13.678;2023-02-22T01:12:50;5.40;;;4.78;;
49340;SDS011;35209;51.050;13.678;2023-02-22T01:17:52;6.47;;;5.82;;
49340;SDS011;35209;51.050;13.678;2023-02-22T01:22:55;5.90;;;5.40;;
49340;SDS011;35209;51.050;13.678;2023-02-22T01:27:59;9.48;;;6.85;;
49340;SDS011;35209;51.050;13.678;2023-02-22T01:33:03;6.53;;;5.95;;
49340;SDS011;35209;51.050;13.678;2023-02-22T01:38:07;6.28;;;5.72;;
49340;SDS011;35209;51.050;13.678;2023-02-22T01:43:15;6.55;;;5.95;;
49340;SDS011;35209;51.050;13.678;2023-02-22T01:48:32;7.00;;;6.40;;
49340;SDS011;35209;51.050;13.678;2023-02-22T01:58:55;7.00;;;6.32;;
49340;SDS011;35209;51.050;13.678;2023-02-22T02:04:03;7.10;;;6.50;;
49340;SDS011;35209;51.050;13.678;2023-02-22T02:14:45;6.95;;;6.35;;
49340;SDS011;35209;51.050;13.678;2023-02-22T02:19:59;8.07;;;7.38;;
49340;SDS011;35209;51.050;13.678;2023-02-22T02:35:32;7.10;;;6.40;;
49340;SDS011;35209;51.050;13.678;2023-02-22T02:46:50;8.20;;;7.45;;
49340;SDS011;35209;51.050;13.678;2023-02-22T02:51:56;8.77;;;8.07;;
49340;SDS011;35209;51.050;13.678;2023-02-22T02:57:01;7.97;;;7.28;;
49340;SDS011;35209;51.050;13.678;2023-02-22T03:02:14;7.85;;;7.20;;
49340;SDS011;35209;51.050;13.678;2023-02-22T03:07:58;9.85;;;8.95;;
49340;SDS011;35209;51.050;13.678;2023-02-22T03:13:16;9.55;;;8.65;;
49340;SDS011;35209;51.050;13.678;2023-02-22T03:18:31;10.98;;;9.98;;
49340;SDS011;35209;51.050;13.678;2023-02-22T03:28:46;11.30;;;7.68;;
49340;SDS011;35209;51.050;13.678;2023-02-22T03:33:56;9.73;;;8.82;;
49340;SDS011;35209;51.050;13.678;2023-02-22T03:39:06;8.65;;;7.95;;
49340;SDS011;35209;51.050;13.678;2023-02-22T03:44:11;10.68;;;8.30;;
49340;SDS011;35209;51.050;13.678;2023-02-22T03:54:43;7.70;;;7.05;;
49340;SDS011;35209;51.050;13.678;2023-02-22T03:59:45;8.68;;;7.88;;
49340;SDS011;35209;51.050;13.678;2023-02-22T04:04:47;8.90;;;8.07;;
49340;SDS011;35209;51.050;13.678;2023-02-22T04:09:49;12.98;;;9.65;;
49340;SDS011;35209;51.050;13.678;2023-02-22T04:14:52;9.77;;;8.82;;
49340;SDS011;35209;51.050;13.678;2023-02-22T04:19:54;11.23;;;10.13;;
49340;SDS011;35209;51.050;13.678;2023-02-22T04:24:57;8.75;;;7.85;;
49340;SDS011;35209;51.050;13.678;2023-02-22T04:30:00;9.45;;;8.55;;
49340;SDS011;35209;51.050;13.678;2023-02-22T04:35:04;9.95;;;7.85;;
49340;SDS011;35209;51.050;13.678;2023-02-22T04:40:08;9.93;;;8.93;;
49340;SDS011;35209;51.050;13.678;2023-02-22T04:45:11;10.95;;;9.68;;
49340;SDS011;35209;51.050;13.678;2023-02-22T04:50:14;11.30;;;10.30;;
49340;SDS011;35209;51.050;13.678;2023-02-22T04:55:16;10.57;;;9.57;;
49340;SDS011;35209;51.050;13.678;2023-02-22T05:00:19;11.93;;;10.65;;
49340;SDS011;35209;51.050;13.678;2023-02-22T05:05:22;11.00;;;9.90;;
49340;SDS011;35209;51.050;13.678;2023-02-22T05:10:24;10.38;;;9.38;;
49340;SDS011;35209;51.050;13.678;2023-02-22T05:15:25;10.95;;;10.00;;
49340;SDS011;35209;51.050;13.678;2023-02-22T05:20:31;11.35;;;10.35;;
49340;SDS011;35209;51.050;13.678;2023-02-22T05:25:34;10.50;;;9.50;;
49340;SDS011;35209;51.050;13.678;2023-02-22T05:30:36;10.60;;;9.70;;
49340;SDS011;35209;51.050;13.678;2023-02-22T05:35:40;9.88;;;8.98;;
49340;SDS011;35209;51.050;13.678;2023-02-22T05:40:42;9.52;;;8.73;;
49340;SDS011;35209;51.050;13.678;2023-02-22T05:45:44;9.95;;;9.02;;
49340;SDS011;35209;51.050;13.678;2023-02-22T05:50:46;10.13;;;9.23;;
49340;SDS011;35209;51.050;13.678;2023-02-22T05:55:50;11.68;;;10.48;;
49340;SDS011;35209;51.050;13.678;2023-02-22T06:00:52;10.57;;;9.57;;
49340;SDS011;35209;51.050;13.678;2023-02-22T06:05:54;10.90;;;9.65;;
49340;SDS011;35209;51.050;13.678;2023-02-22T06:10:55;10.88;;;9.88;;
49340;SDS011;35209;51.050;13.678;2023-02-22T06:15:57;11.00;;;10.00;;
49340;SDS011;35209;51.050;13.678;2023-02-22T06:20:59;11.73;;;9.32;;
49340;SDS011;35209;51.050;13.678;2023-02-22T06:26:02;12.52;;;11.13;;
49340;SDS011;35209;51.050;13.678;2023-02-22T06:31:04;11.82;;;10.63;;
49340;SDS011;35209;51.050;13.678;2023-02-22T06:36:06;10.52;;;9.63;;
49340;SDS011;35209;51.050;13.678;2023-02-22T06:41:08;10.70;;;9.80;;
49340;SDS011;35209;51.050;13.678;2023-02-22T06:46:10;12.23;;;11.07;;
49340;SDS011;35209;51.050;13.678;2023-02-22T06:51:12;11.77;;;10.77;;
49340;SDS011;35209;51.050;13.678;2023-02-22T06:56:14;12.25;;;11.10;;
49340;SDS011;35209;51.050;13.678;2023-02-22T07:01:16;12.85;;;11.55;;
49340;SDS011;35209;51.050;13.678;2023-02-22T07:06:19;12.95;;;11.75;;
49340;SDS011;35209;51.050;13.678;2023-02-22T07:11:21;13.10;;;11.85;;
49340;SDS011;35209;51.050;13.678;2023-02-22T07:16:22;13.88;;;12.13;;
49340;SDS011;35209;51.050;13.678;2023-02-22T07:21:25;13.57;;;12.13;;
49340;SDS011;35209;51.050;13.678;2023-02-22T07:26:27;15.23;;;13.05;;
49340;SDS011;35209;51.050;13.678;2023-02-22T07:31:33;17.00;;;12.73;;
49340;SDS011;35209;51.050;13.678;2023-02-22T07:41:37;12.48;;;11.18;;
49340;SDS011;35209;51.050;13.678;2023-02-22T07:46:47;13.07;;;11.32;;
49340;SDS011;35209;51.050;13.678;2023-02-22T07:51:50;12.57;;;11.40;;
49340;SDS011;35209;51.050;13.678;2023-02-22T07:56:52;13.40;;;12.20;;
49340;SDS011;35209;51.050;13.678;2023-02-22T08:01:54;12.43;;;11.23;;
49340;SDS011;35209;51.050;13.678;2023-02-22T08:06:55;12.75;;;11.45;;
49340;SDS011;35209;51.050;13.678;2023-02-22T08:11:57;14.07;;;12.40;;
49340;SDS011;35209;51.050;13.678;2023-02-22T08:16:59;14.05;;;12.38;;
49340;SDS011;35209;51.050;13.678;2023-02-22T08:22:01;13.40;;;11.55;;
49340;SDS011;35209;51.050;13.678;2023-02-22T08:27:02;13.50;;;11.80;;
49340;SDS011;35209;51.050;13.678;2023-02-22T08:32:04;12.88;;;11.70;;
49340;SDS011;35209;51.050;13.678;2023-02-22T08:37:06;13.13;;;11.95;;
49340;SDS011;35209;51.050;13.678;2023-02-22T08:42:08;12.65;;;11.43;;
49340;SDS011;35209;51.050;13.678;2023-02-22T08:47:10;12.85;;;11.55;;
49340;SDS011;35209;51.050;13.678;2023-02-22T08:52:12;17.42;;;13.05;;
49340;SDS011;35209;51.050;13.678;2023-02-22T08:57:13;12.48;;;11.18;;
49340;SDS011;35209;51.050;13.678;2023-02-22T09:02:16;14.18;;;12.88;;
49340;SDS011;35209;51.050;13.678;2023-02-22T09:07:20;13.98;;;12.57;;
49340;SDS011;35209;51.050;13.678;2023-02-22T09:12:22;12.73;;;11.43;;
49340;SDS011;35209;51.050;13.678;2023-02-22T09:17:24;15.15;;;13.80;;
49340;SDS011;35209;51.050;13.678;2023-02-22T09:22:25;13.55;;;12.35;;
49340;SDS011;35209;51.050;13.678;2023-02-22T09:27:27;14.55;;;13.32;;
49340;SDS011;35209;51.050;13.678;2023-02-22T09:32:29;18.60;;;12.52;;
49340;SDS011;35209;51.050;13.678;2023-02-22T09:37:31;14.15;;;12.63;;
49340;SDS011;35209;51.050;13.678;2023-02-22T09:42:40;13.18;;;12.07;;
49340;SDS011;35209;51.050;13.678;2023-02-22T09:53:23;11.13;;;10.18;;
49340;SDS011;35209;51.050;13.678;2023-02-22T09:58:32;11.57;;;10.55;;
49340;SDS011;35209;51.050;13.678;2023-02-22T10:08:51;10.80;;;9.73;;
49340;SDS011;35209;51.050;13.678;2023-02-22T10:14:00;11.80;;;10.17;;
49340;SDS011;35209;51.050;13.678;2023-02-22T10:29:33;11.05;;;10.05;;
49340;SDS011;35209;51.050;13.678;2023-02-22T10:34:43;11.25;;;10.15;;
49340;SDS011;35209;51.050;13.678;2023-02-22T10:39:48;10.70;;;9.90;;
49340;SDS011;35209;51.050;13.678;2023-02-22T10:44:54;11.75;;;10.65;;
49340;SDS011;35209;51.050;13.678;2023-02-22T10:49:56;13.00;;;11.23;;
49340;SDS011;35209;51.050;13.678;2023-02-22T10:55:01;11.52;;;10.52;;
49340;SDS011;35209;51.050;13.678;2023-02-22T11:00:18;10.48;;;9.57;;
49340;SDS011;35209;51.050;13.678;2023-02-22T11:05:34;9.60;;;8.80;;
49340;SDS011;35209;51.050;13.678;2023-02-22T11:10:38;10.85;;;9.85;;
49340;SDS011;35209;51.050;13.678;2023-02-22T11:15:39;10.02;;;9.02;;
49340;SDS011;35209;51.050;13.678;2023-02-22T11:20:41;9.55;;;8.65;;
49340;SDS011;35209;51.050;13.678;2023-02-22T11:25:43;9.70;;;8.90;;
49340;SDS011;35209;51.050;13.678;2023-02-22T11:30:46;9.75;;;8.80;;
49340;SDS011;35209;51.050;13.678;2023-02-22T11:35:55;9.90;;;9.00;;
49340;SDS011;35209;51.050;13.678;2023-02-22T11:46:16;8.48;;;7.85;;
49340;SDS011;35209;51.050;13.678;2023-02-22T11:56:39;9.13;;;6.63;;
49340;SDS011;35209;51.050;13.678;2023-02-22T12:01:55;6.38;;;5.90;;
49340;SDS011;35209;51.050;13.678;2023-02-22T12:17:38;7.85;;;7.25;;
49340;SDS011;35209;51.050;13.678;2023-02-22T12:28:22;7.25;;;6.15;;
49340;SDS011;35209;51.050;13.678;2023-02-22T12:33:30;5.57;;;5.07;;
49340;SDS011;35209;51.050;13.678;2023-02-22T12:38:46;5.78;;;5.28;;
49340;SDS011;35209;51.050;13.678;2023-02-22T12:49:40;6.53;;;5.97;;
49340;SDS011;35209;51.050;13.678;2023-02-22T12:59:55;5.13;;;4.72;;
49340;SDS011;35209;51.050;13.678;2023-02-22T13:05:02;4.35;;;4.05;;
49340;SDS011;35209;51.050;13.678;2023-02-22T13:20:38;4.47;;;4.05;;
49340;SDS011;35209;51.050;13.678;2023-02-22T13:26:00;4.35;;;3.95;;
49340;SDS011;35209;51.050;13.678;2023-02-22T13:47:47;3.92;;;3.60;;
49340;SDS011;35209;51.050;13.678;2023-02-22T13:53:03;3.85;;;3.50;;
49340;SDS011;35209;51.050;13.678;2023-02-22T13:58:11;5.05;;;4.55;;
49340;SDS011;35209;51.050;13.678;2023-02-22T14:13:21;3.67;;;3.35;;
49340;SDS011;35209;51.050;13.678;2023-02-22T14:18:24;5.05;;;3.92;;
49340;SDS011;35209;51.050;13.678;2023-02-22T14:23:32;3.78;;;3.47;;
49340;SDS011;35209;51.050;13.678;2023-02-22T14:39:10;3.92;;;3.63;;
49340;SDS011;35209;51.050;13.678;2023-02-22T14:44:25;3.75;;;3.45;;
49340;SDS011;35209;51.050;13.678;2023-02-22T14:49:35;5.30;;;3.35;;
49340;SDS011;35209;51.050;13.678;2023-02-22T14:54:55;3.60;;;3.30;;
49340;SDS011;35209;51.050;13.678;2023-02-22T15:00:12;4.10;;;3.75;;
49340;SDS011;35209;51.050;13.678;2023-02-22T15:05:20;3.40;;;3.10;;
49340;SDS011;35209;51.050;13.678;2023-02-22T15:10:23;4.28;;;3.72;;
49340;SDS011;35209;51.050;13.678;2023-02-22T15:15:25;3.90;;;3.60;;
49340;SDS011;35209;51.050;13.678;2023-02-22T15:20:27;3.90;;;3.60;;
49340;SDS011;35209;51.050;13.678;2023-02-22T15:25:30;3.42;;;3.15;;
49340;SDS011;35209;51.050;13.678;2023-02-22T15:30:32;3.80;;;3.50;;
49340;SDS011;35209;51.050;13.678;2023-02-22T15:35:34;4.80;;;4.40;;
49340;SDS011;35209;51.050;13.678;2023-02-22T15:40:37;8.95;;;8.18;;
49340;SDS011;35209;51.050;13.678;2023-02-22T15:45:44;9.70;;;8.82;;
49340;SDS011;35209;51.050;13.678;2023-02-22T15:56:11;9.68;;;8.88;;
